sensor_id;sensor_type;location;lat;lon;timestamp;P1;durP1;ratioP1;P2;durP2;ratioP2
769;SDS011;368;48.698;9.116;2023-12-28T00:01:45;3.43;;;1.83;;
769;SDS011;368;48.698;9.116;2023-12-28T00:04:12;3.37;;;2.10;;
769;SDS011;368;48.698;9.116;2023-12-28T00:06:38;3.37;;;2.40;;
769;SDS011;368;48.698;9.116;2023-12-28T00:09:05;2.83;;;2.13;;
769;SDS011;368;48.698;9.116;2023-12-28T00:11:33;2.50;;;2.17;;
769;SDS011;368;48.698;9.116;2023-12-28T00:14:00;3.10;;;2.57;;
769;SDS011;368;48.698;9.116;2023-12-28T00:16:27;3.80;;;2.50;;
769;SDS011;368;48.698;9.116;2023-12-28T00:18:56;2.60;;;2.03;;
769;SDS011;368;48.698;9.116;2023-12-28T00:21:23;3.97;;;2.60;;
769;SDS011;368;48.698;9.116;2023-12-28T00:23:50;2.77;;;2.27;;
769;SDS011;368;48.698;9.116;2023-12-28T00:26:17;2.97;;;2.60;;
769;SDS011;368;48.698;9.116;2023-12-28T00:28:46;2.73;;;2.20;;
769;SDS011;368;48.698;9.116;2023-12-28T00:31:13;2.03;;;1.90;;
769;SDS011;368;48.698;9.116;2023-12-28T00:33:40;1.93;;;1.80;;
769;SDS011;368;48.698;9.116;2023-12-28T00:36:08;2.70;;;2.40;;
769;SDS011;368;48.698;9.116;2023-12-28T00:38:34;2.83;;;2.30;;
769;SDS011;368;48.698;9.116;2023-12-28T00:41:01;5.47;;;2.37;;
769;SDS011;368;48.698;9.116;2023-12-28T00:43:28;3.97;;;3.10;;
769;SDS011;368;48.698;9.116;2023-12-28T00:45:55;2.40;;;2.17;;
769;SDS011;368;48.698;9.116;2023-12-28T00:48:22;2.67;;;2.47;;
769;SDS011;368;48.698;9.116;2023-12-28T00:50:49;2.90;;;2.43;;
769;SDS011;368;48.698;9.116;2023-12-28T00:53:17;2.70;;;2.03;;
769;SDS011;368;48.698;9.116;2023-12-28T00:55:45;2.90;;;2.27;;
769;SDS011;368;48.698;9.116;2023-12-28T00:58:11;1.87;;;1.77;;
769;SDS011;368;48.698;9.116;2023-12-28T01:00:39;2.47;;;2.10;;
769;SDS011;368;48.698;9.116;2023-12-28T01:03:05;3.53;;;2.60;;
769;SDS011;368;48.698;9.116;2023-12-28T01:05:32;2.60;;;2.40;;
769;SDS011;368;48.698;9.116;2023-12-28T01:07:59;2.70;;;1.97;;
769;SDS011;368;48.698;9.116;2023-12-28T01:10:27;3.33;;;3.03;;
769;SDS011;368;48.698;9.116;2023-12-28T01:12:54;2.80;;;2.00;;
769;SDS011;368;48.698;9.116;2023-12-28T01:15:21;2.50;;;2.30;;
769;SDS011;368;48.698;9.116;2023-12-28T01:17:48;3.87;;;2.40;;
769;SDS011;368;48.698;9.116;2023-12-28T01:20:14;2.47;;;2.20;;
769;SDS011;368;48.698;9.116;2023-12-28T01:22:41;2.60;;;2.23;;
769;SDS011;368;48.698;9.116;2023-12-28T01:25:08;2.23;;;2.03;;
769;SDS011;368;48.698;9.116;2023-12-28T01:27:37;2.90;;;2.30;;
769;SDS011;368;48.698;9.116;2023-12-28T01:30:04;4.40;;;1.87;;
769;SDS011;368;48.698;9.116;2023-12-28T01:32:32;2.47;;;2.10;;
769;SDS011;368;48.698;9.116;2023-12-28T01:34:59;4.40;;;2.10;;
769;SDS011;368;48.698;9.116;2023-12-28T01:37:26;5.93;;;2.53;;
769;SDS011;368;48.698;9.116;2023-12-28T01:39:55;3.77;;;2.33;;
769;SDS011;368;48.698;9.116;2023-12-28T01:42:22;2.23;;;2.03;;
769;SDS011;368;48.698;9.116;2023-12-28T01:44:50;1.80;;;1.70;;
769;SDS011;368;48.698;9.116;2023-12-28T01:47:17;2.80;;;2.10;;
769;SDS011;368;48.698;9.116;2023-12-28T01:49:44;2.80;;;2.03;;
769;SDS011;368;48.698;9.116;2023-12-28T01:52:12;3.47;;;2.43;;
769;SDS011;368;48.698;9.116;2023-12-28T01:54:39;2.67;;;2.03;;
769;SDS011;368;48.698;9.116;2023-12-28T01:57:06;2.43;;;2.23;;
769;SDS011;368;48.698;9.116;2023-12-28T01:59:33;2.03;;;1.83;;
769;SDS011;368;48.698;9.116;2023-12-28T02:02:02;2.67;;;2.47;;
769;SDS011;368;48.698;9.116;2023-12-28T02:04:29;1.90;;;1.70;;
769;SDS011;368;48.698;9.116;2023-12-28T02:06:56;2.40;;;2.00;;
769;SDS011;368;48.698;9.116;2023-12-28T02:09:24;2.60;;;2.03;;
769;SDS011;368;48.698;9.116;2023-12-28T02:11:51;2.37;;;1.90;;
769;SDS011;368;48.698;9.116;2023-12-28T02:14:18;1.80;;;1.60;;
769;SDS011;368;48.698;9.116;2023-12-28T02:16:47;3.13;;;2.60;;
769;SDS011;368;48.698;9.116;2023-12-28T02:19:29;2.30;;;1.70;;
769;SDS011;368;48.698;9.116;2023-12-28T02:21:59;2.80;;;1.80;;
769;SDS011;368;48.698;9.116;2023-12-28T02:24:26;3.00;;;2.10;;
769;SDS011;368;48.698;9.116;2023-12-28T02:26:55;2.00;;;1.60;;
769;SDS011;368;48.698;9.116;2023-12-28T02:29:21;2.27;;;1.93;;
769;SDS011;368;48.698;9.116;2023-12-28T02:31:49;2.80;;;2.50;;
769;SDS011;368;48.698;9.116;2023-12-28T02:34:27;2.20;;;2.00;;
769;SDS011;368;48.698;9.116;2023-12-28T02:37:00;4.10;;;2.10;;
769;SDS011;368;48.698;9.116;2023-12-28T02:39:28;3.77;;;2.27;;
769;SDS011;368;48.698;9.116;2023-12-28T02:41:58;2.90;;;2.20;;
769;SDS011;368;48.698;9.116;2023-12-28T02:44:25;2.27;;;2.07;;
769;SDS011;368;48.698;9.116;2023-12-28T02:46:51;2.07;;;1.87;;
769;SDS011;368;48.698;9.116;2023-12-28T02:49:18;3.47;;;2.67;;
769;SDS011;368;48.698;9.116;2023-12-28T02:51:45;2.23;;;2.03;;
769;SDS011;368;48.698;9.116;2023-12-28T02:54:12;3.03;;;2.03;;
769;SDS011;368;48.698;9.116;2023-12-28T02:56:39;2.47;;;1.80;;
769;SDS011;368;48.698;9.116;2023-12-28T02:59:07;2.30;;;1.97;;
769;SDS011;368;48.698;9.116;2023-12-28T03:01:34;2.90;;;2.70;;
769;SDS011;368;48.698;9.116;2023-12-28T03:04:01;3.43;;;2.70;;
769;SDS011;368;48.698;9.116;2023-12-28T03:06:28;4.57;;;4.17;;
769;SDS011;368;48.698;9.116;2023-12-28T03:08:54;2.97;;;2.77;;
769;SDS011;368;48.698;9.116;2023-12-28T03:11:21;3.50;;;3.20;;
769;SDS011;368;48.698;9.116;2023-12-28T03:13:48;3.83;;;2.43;;
769;SDS011;368;48.698;9.116;2023-12-28T03:16:16;6.47;;;4.33;;
769;SDS011;368;48.698;9.116;2023-12-28T03:18:43;2.37;;;2.10;;
769;SDS011;368;48.698;9.116;2023-12-28T03:21:10;3.23;;;3.00;;
769;SDS011;368;48.698;9.116;2023-12-28T03:23:37;2.37;;;2.10;;
769;SDS011;368;48.698;9.116;2023-12-28T03:26:04;2.47;;;2.27;;
769;SDS011;368;48.698;9.116;2023-12-28T03:28:30;2.80;;;2.40;;
769;SDS011;368;48.698;9.116;2023-12-28T03:30:57;2.50;;;1.87;;
769;SDS011;368;48.698;9.116;2023-12-28T03:33:26;2.17;;;1.97;;
769;SDS011;368;48.698;9.116;2023-12-28T03:35:53;4.90;;;2.97;;
769;SDS011;368;48.698;9.116;2023-12-28T03:38:20;2.53;;;2.10;;
769;SDS011;368;48.698;9.116;2023-12-28T03:40:47;2.97;;;1.73;;
769;SDS011;368;48.698;9.116;2023-12-28T03:43:15;2.87;;;2.30;;
769;SDS011;368;48.698;9.116;2023-12-28T03:45:41;1.80;;;1.70;;
769;SDS011;368;48.698;9.116;2023-12-28T03:48:08;2.30;;;1.97;;
769;SDS011;368;48.698;9.116;2023-12-28T03:50:36;2.03;;;1.93;;
769;SDS011;368;48.698;9.116;2023-12-28T03:53:03;2.43;;;2.00;;
769;SDS011;368;48.698;9.116;2023-12-28T03:55:30;2.10;;;1.90;;
769;SDS011;368;48.698;9.116;2023-12-28T03:57:57;2.97;;;2.43;;
769;SDS011;368;48.698;9.116;2023-12-28T04:00:23;1.70;;;1.60;;
769;SDS011;368;48.698;9.116;2023-12-28T04:02:50;1.90;;;1.63;;
769;SDS011;368;48.698;9.116;2023-12-28T04:05:17;2.50;;;2.20;;
769;SDS011;368;48.698;9.116;2023-12-28T04:07:45;1.87;;;1.67;;
769;SDS011;368;48.698;9.116;2023-12-28T04:10:12;2.30;;;1.90;;
769;SDS011;368;48.698;9.116;2023-12-28T04:12:39;1.93;;;1.73;;
769;SDS011;368;48.698;9.116;2023-12-28T04:15:06;2.30;;;2.00;;
769;SDS011;368;48.698;9.116;2023-12-28T04:17:33;2.53;;;1.70;;
769;SDS011;368;48.698;9.116;2023-12-28T04:20:00;3.73;;;2.00;;
769;SDS011;368;48.698;9.116;2023-12-28T04:22:27;2.27;;;1.90;;
769;SDS011;368;48.698;9.116;2023-12-28T04:24:55;1.60;;;1.37;;
769;SDS011;368;48.698;9.116;2023-12-28T04:27:21;1.77;;;1.60;;
769;SDS011;368;48.698;9.116;2023-12-28T04:29:48;1.93;;;1.73;;
769;SDS011;368;48.698;9.116;2023-12-28T04:32:15;2.50;;;1.70;;
769;SDS011;368;48.698;9.116;2023-12-28T04:34:42;1.50;;;1.40;;
769;SDS011;368;48.698;9.116;2023-12-28T04:37:09;2.50;;;1.70;;
769;SDS011;368;48.698;9.116;2023-12-28T04:39:36;1.87;;;1.47;;
769;SDS011;368;48.698;9.116;2023-12-28T04:42:05;2.60;;;1.57;;
769;SDS011;368;48.698;9.116;2023-12-28T04:44:31;1.60;;;1.50;;
769;SDS011;368;48.698;9.116;2023-12-28T04:47:03;2.10;;;1.70;;
769;SDS011;368;48.698;9.116;2023-12-28T04:49:30;4.20;;;1.90;;
769;SDS011;368;48.698;9.116;2023-12-28T04:51:57;2.27;;;1.83;;
769;SDS011;368;48.698;9.116;2023-12-28T04:54:25;1.80;;;1.60;;
769;SDS011;368;48.698;9.116;2023-12-28T04:56:52;3.07;;;1.70;;
769;SDS011;368;48.698;9.116;2023-12-28T04:59:20;2.57;;;1.87;;
769;SDS011;368;48.698;9.116;2023-12-28T05:01:47;2.03;;;1.60;;
769;SDS011;368;48.698;9.116;2023-12-28T05:04:14;2.43;;;1.60;;
769;SDS011;368;48.698;9.116;2023-12-28T05:06:40;1.83;;;1.47;;
769;SDS011;368;48.698;9.116;2023-12-28T05:09:07;1.87;;;1.30;;
769;SDS011;368;48.698;9.116;2023-12-28T05:11:34;2.50;;;1.47;;
769;SDS011;368;48.698;9.116;2023-12-28T05:14:01;2.47;;;1.83;;
769;SDS011;368;48.698;9.116;2023-12-28T05:16:29;2.57;;;1.80;;
769;SDS011;368;48.698;9.116;2023-12-28T05:18:56;2.77;;;1.37;;
769;SDS011;368;48.698;9.116;2023-12-28T05:21:23;3.23;;;1.87;;
769;SDS011;368;48.698;9.116;2023-12-28T05:23:50;3.00;;;1.83;;
769;SDS011;368;48.698;9.116;2023-12-28T05:26:17;2.90;;;1.80;;
769;SDS011;368;48.698;9.116;2023-12-28T05:28:44;2.40;;;1.50;;
769;SDS011;368;48.698;9.116;2023-12-28T05:31:11;1.70;;;1.60;;
769;SDS011;368;48.698;9.116;2023-12-28T05:33:39;3.20;;;1.67;;
769;SDS011;368;48.698;9.116;2023-12-28T05:36:06;2.80;;;2.57;;
769;SDS011;368;48.698;9.116;2023-12-28T05:38:33;1.60;;;1.50;;
769;SDS011;368;48.698;9.116;2023-12-28T05:41:00;1.57;;;1.30;;
769;SDS011;368;48.698;9.116;2023-12-28T05:43:27;1.40;;;1.27;;
769;SDS011;368;48.698;9.116;2023-12-28T05:45:54;2.00;;;1.60;;
769;SDS011;368;48.698;9.116;2023-12-28T05:48:20;2.87;;;2.00;;
769;SDS011;368;48.698;9.116;2023-12-28T05:50:49;1.93;;;1.60;;
769;SDS011;368;48.698;9.116;2023-12-28T05:53:15;2.50;;;1.70;;
769;SDS011;368;48.698;9.116;2023-12-28T05:55:42;3.03;;;1.87;;
769;SDS011;368;48.698;9.116;2023-12-28T05:58:09;2.10;;;1.73;;
769;SDS011;368;48.698;9.116;2023-12-28T06:00:36;2.23;;;1.67;;
769;SDS011;368;48.698;9.116;2023-12-28T06:03:04;2.20;;;1.70;;
769;SDS011;368;48.698;9.116;2023-12-28T06:05:31;2.87;;;2.17;;
769;SDS011;368;48.698;9.116;2023-12-28T06:07:59;2.60;;;1.70;;
769;SDS011;368;48.698;9.116;2023-12-28T06:10:26;3.17;;;2.87;;
769;SDS011;368;48.698;9.116;2023-12-28T06:12:52;1.80;;;1.70;;
769;SDS011;368;48.698;9.116;2023-12-28T06:15:19;2.10;;;1.90;;
769;SDS011;368;48.698;9.116;2023-12-28T06:17:46;1.90;;;1.73;;
769;SDS011;368;48.698;9.116;2023-12-28T06:20:13;2.43;;;1.87;;
769;SDS011;368;48.698;9.116;2023-12-28T06:22:40;3.43;;;1.60;;
769;SDS011;368;48.698;9.116;2023-12-28T06:25:10;1.70;;;1.60;;
769;SDS011;368;48.698;9.116;2023-12-28T06:27:37;2.10;;;1.90;;
769;SDS011;368;48.698;9.116;2023-12-28T06:30:04;2.07;;;1.70;;
769;SDS011;368;48.698;9.116;2023-12-28T06:32:32;3.10;;;2.27;;
769;SDS011;368;48.698;9.116;2023-12-28T06:34:59;1.80;;;1.40;;
769;SDS011;368;48.698;9.116;2023-12-28T06:37:26;1.60;;;1.50;;
769;SDS011;368;48.698;9.116;2023-12-28T06:39:52;4.50;;;1.60;;
769;SDS011;368;48.698;9.116;2023-12-28T06:42:20;2.67;;;1.67;;
769;SDS011;368;48.698;9.116;2023-12-28T06:44:47;2.03;;;1.60;;
769;SDS011;368;48.698;9.116;2023-12-28T06:47:14;2.10;;;1.70;;
769;SDS011;368;48.698;9.116;2023-12-28T06:49:41;2.70;;;2.03;;
769;SDS011;368;48.698;9.116;2023-12-28T06:52:07;1.97;;;1.53;;
769;SDS011;368;48.698;9.116;2023-12-28T06:54:34;2.17;;;1.50;;
769;SDS011;368;48.698;9.116;2023-12-28T06:57:01;2.00;;;1.40;;
769;SDS011;368;48.698;9.116;2023-12-28T06:59:29;2.00;;;1.60;;
769;SDS011;368;48.698;9.116;2023-12-28T07:01:56;4.33;;;1.93;;
769;SDS011;368;48.698;9.116;2023-12-28T07:04:23;1.90;;;1.57;;
769;SDS011;368;48.698;9.116;2023-12-28T07:06:50;1.30;;;1.20;;
769;SDS011;368;48.698;9.116;2023-12-28T07:09:17;2.80;;;1.83;;
769;SDS011;368;48.698;9.116;2023-12-28T07:11:44;2.30;;;1.33;;
769;SDS011;368;48.698;9.116;2023-12-28T07:14:10;1.70;;;1.53;;
769;SDS011;368;48.698;9.116;2023-12-28T07:16:39;1.73;;;1.57;;
769;SDS011;368;48.698;9.116;2023-12-28T07:19:05;1.57;;;1.43;;
769;SDS011;368;48.698;9.116;2023-12-28T07:21:32;2.40;;;1.63;;
769;SDS011;368;48.698;9.116;2023-12-28T07:23:59;3.23;;;1.63;;
769;SDS011;368;48.698;9.116;2023-12-28T07:26:25;4.83;;;2.93;;
769;SDS011;368;48.698;9.116;2023-12-28T07:28:52;3.77;;;3.00;;
769;SDS011;368;48.698;9.116;2023-12-28T07:31:23;2.10;;;1.63;;
769;SDS011;368;48.698;9.116;2023-12-28T07:33:51;4.47;;;1.77;;
769;SDS011;368;48.698;9.116;2023-12-28T07:36:18;2.57;;;1.77;;
769;SDS011;368;48.698;9.116;2023-12-28T07:38:45;2.67;;;1.73;;
769;SDS011;368;48.698;9.116;2023-12-28T07:41:12;1.73;;;1.50;;
769;SDS011;368;48.698;9.116;2023-12-28T07:43:40;2.13;;;1.80;;
769;SDS011;368;48.698;9.116;2023-12-28T07:46:07;2.27;;;1.80;;
769;SDS011;368;48.698;9.116;2023-12-28T07:48:34;1.70;;;1.60;;
769;SDS011;368;48.698;9.116;2023-12-28T07:51:05;4.03;;;1.73;;
769;SDS011;368;48.698;9.116;2023-12-28T07:53:33;3.13;;;1.93;;
769;SDS011;368;48.698;9.116;2023-12-28T07:56:00;1.93;;;1.73;;
769;SDS011;368;48.698;9.116;2023-12-28T07:58:26;2.10;;;1.60;;
769;SDS011;368;48.698;9.116;2023-12-28T08:00:53;3.70;;;2.60;;
769;SDS011;368;48.698;9.116;2023-12-28T08:03:20;2.70;;;2.20;;
769;SDS011;368;48.698;9.116;2023-12-28T08:05:47;3.67;;;2.93;;
769;SDS011;368;48.698;9.116;2023-12-28T08:08:15;3.30;;;3.00;;
769;SDS011;368;48.698;9.116;2023-12-28T08:10:42;4.40;;;2.43;;
769;SDS011;368;48.698;9.116;2023-12-28T08:13:08;3.33;;;3.03;;
769;SDS011;368;48.698;9.116;2023-12-28T08:15:35;2.40;;;1.77;;
769;SDS011;368;48.698;9.116;2023-12-28T08:18:02;2.47;;;1.67;;
769;SDS011;368;48.698;9.116;2023-12-28T08:20:29;1.57;;;1.47;;
769;SDS011;368;48.698;9.116;2023-12-28T08:22:56;2.20;;;2.00;;
769;SDS011;368;48.698;9.116;2023-12-28T08:25:24;4.47;;;2.73;;
769;SDS011;368;48.698;9.116;2023-12-28T08:27:51;3.30;;;2.03;;
769;SDS011;368;48.698;9.116;2023-12-28T08:30:18;2.67;;;1.70;;
769;SDS011;368;48.698;9.116;2023-12-28T08:32:44;4.37;;;2.00;;
769;SDS011;368;48.698;9.116;2023-12-28T08:35:11;5.50;;;2.13;;
769;SDS011;368;48.698;9.116;2023-12-28T08:37:38;2.30;;;2.10;;
769;SDS011;368;48.698;9.116;2023-12-28T08:40:06;2.50;;;1.87;;
769;SDS011;368;48.698;9.116;2023-12-28T08:42:35;3.20;;;2.20;;
769;SDS011;368;48.698;9.116;2023-12-28T08:45:02;1.93;;;1.50;;
769;SDS011;368;48.698;9.116;2023-12-28T08:47:29;2.37;;;1.80;;
769;SDS011;368;48.698;9.116;2023-12-28T08:49:55;1.70;;;1.60;;
769;SDS011;368;48.698;9.116;2023-12-28T08:52:22;2.73;;;1.67;;
769;SDS011;368;48.698;9.116;2023-12-28T08:54:49;3.63;;;2.97;;
769;SDS011;368;48.698;9.116;2023-12-28T08:57:16;2.20;;;1.67;;
769;SDS011;368;48.698;9.116;2023-12-28T08:59:44;1.93;;;1.60;;
769;SDS011;368;48.698;9.116;2023-12-28T09:02:11;2.10;;;1.77;;
769;SDS011;368;48.698;9.116;2023-12-28T09:04:37;2.50;;;1.67;;
769;SDS011;368;48.698;9.116;2023-12-28T09:07:04;2.00;;;1.40;;
769;SDS011;368;48.698;9.116;2023-12-28T09:09:31;2.93;;;1.93;;
769;SDS011;368;48.698;9.116;2023-12-28T09:11:58;1.87;;;1.40;;
769;SDS011;368;48.698;9.116;2023-12-28T09:14:24;2.20;;;1.50;;
769;SDS011;368;48.698;9.116;2023-12-28T09:16:52;2.83;;;1.80;;
769;SDS011;368;48.698;9.116;2023-12-28T09:19:18;2.17;;;1.60;;
769;SDS011;368;48.698;9.116;2023-12-28T09:21:45;2.80;;;1.83;;
769;SDS011;368;48.698;9.116;2023-12-28T09:24:12;1.63;;;1.50;;
769;SDS011;368;48.698;9.116;2023-12-28T09:26:40;2.70;;;1.60;;
769;SDS011;368;48.698;9.116;2023-12-28T09:29:07;1.53;;;1.40;;
769;SDS011;368;48.698;9.116;2023-12-28T09:31:34;2.40;;;2.20;;
769;SDS011;368;48.698;9.116;2023-12-28T09:34:02;3.40;;;1.83;;
769;SDS011;368;48.698;9.116;2023-12-28T09:36:29;1.73;;;1.63;;
769;SDS011;368;48.698;9.116;2023-12-28T09:38:56;2.80;;;1.80;;
769;SDS011;368;48.698;9.116;2023-12-28T09:41:24;2.37;;;1.87;;
769;SDS011;368;48.698;9.116;2023-12-28T09:43:53;1.60;;;1.50;;
769;SDS011;368;48.698;9.116;2023-12-28T09:46:24;2.00;;;1.50;;
769;SDS011;368;48.698;9.116;2023-12-28T09:48:52;1.80;;;1.53;;
769;SDS011;368;48.698;9.116;2023-12-28T09:51:22;1.93;;;1.23;;
769;SDS011;368;48.698;9.116;2023-12-28T09:53:50;1.47;;;1.10;;
769;SDS011;368;48.698;9.116;2023-12-28T09:56:17;2.40;;;1.40;;
769;SDS011;368;48.698;9.116;2023-12-28T09:58:44;2.10;;;1.40;;
769;SDS011;368;48.698;9.116;2023-12-28T10:01:15;3.10;;;1.80;;
769;SDS011;368;48.698;9.116;2023-12-28T10:03:44;2.20;;;1.50;;
769;SDS011;368;48.698;9.116;2023-12-28T10:06:10;2.10;;;1.30;;
769;SDS011;368;48.698;9.116;2023-12-28T10:08:45;3.10;;;1.47;;
769;SDS011;368;48.698;9.116;2023-12-28T10:11:13;1.60;;;1.40;;
769;SDS011;368;48.698;9.116;2023-12-28T10:13:41;2.40;;;1.40;;
769;SDS011;368;48.698;9.116;2023-12-28T10:16:09;1.60;;;1.43;;
769;SDS011;368;48.698;9.116;2023-12-28T10:18:36;2.90;;;2.03;;
769;SDS011;368;48.698;9.116;2023-12-28T10:21:06;1.37;;;1.27;;
769;SDS011;368;48.698;9.116;2023-12-28T10:23:33;1.80;;;1.40;;
769;SDS011;368;48.698;9.116;2023-12-28T10:26:02;3.40;;;1.97;;
769;SDS011;368;48.698;9.116;2023-12-28T10:28:31;2.93;;;2.47;;
769;SDS011;368;48.698;9.116;2023-12-28T10:30:58;1.73;;;1.63;;
769;SDS011;368;48.698;9.116;2023-12-28T10:33:25;1.83;;;1.57;;
769;SDS011;368;48.698;9.116;2023-12-28T10:35:52;2.40;;;1.70;;
769;SDS011;368;48.698;9.116;2023-12-28T10:38:19;2.10;;;1.57;;
769;SDS011;368;48.698;9.116;2023-12-28T10:40:46;1.67;;;1.40;;
769;SDS011;368;48.698;9.116;2023-12-28T10:43:16;2.47;;;1.63;;
769;SDS011;368;48.698;9.116;2023-12-28T10:45:46;1.30;;;1.20;;
769;SDS011;368;48.698;9.116;2023-12-28T10:48:16;2.70;;;1.30;;
769;SDS011;368;48.698;9.116;2023-12-28T10:50:48;1.60;;;1.50;;
769;SDS011;368;48.698;9.116;2023-12-28T10:53:21;3.10;;;2.37;;
769;SDS011;368;48.698;9.116;2023-12-28T10:56:00;2.10;;;1.53;;
769;SDS011;368;48.698;9.116;2023-12-28T10:58:39;1.87;;;1.60;;
769;SDS011;368;48.698;9.116;2023-12-28T11:01:14;1.97;;;1.57;;
769;SDS011;368;48.698;9.116;2023-12-28T11:03:48;5.37;;;1.50;;
769;SDS011;368;48.698;9.116;2023-12-28T11:06:23;1.90;;;1.50;;
769;SDS011;368;48.698;9.116;2023-12-28T11:08:51;1.73;;;1.43;;
769;SDS011;368;48.698;9.116;2023-12-28T11:11:19;2.03;;;1.60;;
769;SDS011;368;48.698;9.116;2023-12-28T11:13:49;5.73;;;1.60;;
769;SDS011;368;48.698;9.116;2023-12-28T11:16:17;1.87;;;1.50;;
769;SDS011;368;48.698;9.116;2023-12-28T11:18:45;1.93;;;1.10;;
769;SDS011;368;48.698;9.116;2023-12-28T11:21:12;3.60;;;1.40;;
769;SDS011;368;48.698;9.116;2023-12-28T11:23:39;1.67;;;1.33;;
769;SDS011;368;48.698;9.116;2023-12-28T11:26:15;1.67;;;1.30;;
769;SDS011;368;48.698;9.116;2023-12-28T11:28:42;2.30;;;1.37;;
769;SDS011;368;48.698;9.116;2023-12-28T11:31:10;2.53;;;1.33;;
769;SDS011;368;48.698;9.116;2023-12-28T11:33:43;1.50;;;1.40;;
769;SDS011;368;48.698;9.116;2023-12-28T11:36:10;1.90;;;1.40;;
769;SDS011;368;48.698;9.116;2023-12-28T11:38:37;1.23;;;1.10;;
769;SDS011;368;48.698;9.116;2023-12-28T11:41:06;2.60;;;1.33;;
769;SDS011;368;48.698;9.116;2023-12-28T11:43:34;1.67;;;1.00;;
769;SDS011;368;48.698;9.116;2023-12-28T11:46:02;8.53;;;2.00;;
769;SDS011;368;48.698;9.116;2023-12-28T11:48:32;1.57;;;1.37;;
769;SDS011;368;48.698;9.116;2023-12-28T11:50:59;1.40;;;1.30;;
769;SDS011;368;48.698;9.116;2023-12-28T11:53:28;1.30;;;1.20;;
769;SDS011;368;48.698;9.116;2023-12-28T11:55:59;1.60;;;1.30;;
769;SDS011;368;48.698;9.116;2023-12-28T11:58:28;3.37;;;0.90;;
769;SDS011;368;48.698;9.116;2023-12-28T12:00:54;2.13;;;1.30;;
769;SDS011;368;48.698;9.116;2023-12-28T12:03:24;3.50;;;1.33;;
769;SDS011;368;48.698;9.116;2023-12-28T12:05:52;1.90;;;1.33;;
769;SDS011;368;48.698;9.116;2023-12-28T12:08:20;1.40;;;1.30;;
769;SDS011;368;48.698;9.116;2023-12-28T12:10:46;1.20;;;1.13;;
769;SDS011;368;48.698;9.116;2023-12-28T12:13:13;1.53;;;1.40;;
769;SDS011;368;48.698;9.116;2023-12-28T12:15:41;2.03;;;1.50;;
769;SDS011;368;48.698;9.116;2023-12-28T12:18:08;1.90;;;1.57;;
769;SDS011;368;48.698;9.116;2023-12-28T12:20:35;1.70;;;1.40;;
769;SDS011;368;48.698;9.116;2023-12-28T12:23:05;2.40;;;1.93;;
769;SDS011;368;48.698;9.116;2023-12-28T12:25:32;2.50;;;1.60;;
769;SDS011;368;48.698;9.116;2023-12-28T12:27:58;2.27;;;1.40;;
769;SDS011;368;48.698;9.116;2023-12-28T12:30:25;3.17;;;1.40;;
769;SDS011;368;48.698;9.116;2023-12-28T12:32:52;2.13;;;1.20;;
769;SDS011;368;48.698;9.116;2023-12-28T12:35:19;5.10;;;2.13;;
769;SDS011;368;48.698;9.116;2023-12-28T12:37:46;1.50;;;1.40;;
769;SDS011;368;48.698;9.116;2023-12-28T12:40:17;2.20;;;1.50;;
769;SDS011;368;48.698;9.116;2023-12-28T12:42:51;1.43;;;1.33;;
769;SDS011;368;48.698;9.116;2023-12-28T12:45:18;1.73;;;1.50;;
769;SDS011;368;48.698;9.116;2023-12-28T12:47:46;1.67;;;1.57;;
769;SDS011;368;48.698;9.116;2023-12-28T12:50:14;1.90;;;1.47;;
769;SDS011;368;48.698;9.116;2023-12-28T12:52:42;1.97;;;1.70;;
769;SDS011;368;48.698;9.116;2023-12-28T12:55:10;1.80;;;1.40;;
769;SDS011;368;48.698;9.116;2023-12-28T12:57:38;1.90;;;1.50;;
769;SDS011;368;48.698;9.116;2023-12-28T13:00:06;2.30;;;1.73;;
769;SDS011;368;48.698;9.116;2023-12-28T13:02:35;3.97;;;1.73;;
769;SDS011;368;48.698;9.116;2023-12-28T13:05:02;1.70;;;1.60;;
769;SDS011;368;48.698;9.116;2023-12-28T13:07:30;3.07;;;1.67;;
769;SDS011;368;48.698;9.116;2023-12-28T13:09:57;1.60;;;1.50;;
769;SDS011;368;48.698;9.116;2023-12-28T13:12:24;2.83;;;1.60;;
769;SDS011;368;48.698;9.116;2023-12-28T13:14:52;2.60;;;1.80;;
769;SDS011;368;48.698;9.116;2023-12-28T13:17:19;1.63;;;1.53;;
769;SDS011;368;48.698;9.116;2023-12-28T13:19:45;3.43;;;1.77;;
769;SDS011;368;48.698;9.116;2023-12-28T13:22:12;1.70;;;1.60;;
769;SDS011;368;48.698;9.116;2023-12-28T13:24:40;1.90;;;1.53;;
769;SDS011;368;48.698;9.116;2023-12-28T13:27:07;1.90;;;1.50;;
769;SDS011;368;48.698;9.116;2023-12-28T13:29:35;3.87;;;3.53;;
769;SDS011;368;48.698;9.116;2023-12-28T13:32:03;2.00;;;1.90;;
769;SDS011;368;48.698;9.116;2023-12-28T13:34:31;1.87;;;1.73;;
769;SDS011;368;48.698;9.116;2023-12-28T13:36:58;2.10;;;1.73;;
769;SDS011;368;48.698;9.116;2023-12-28T13:39:26;3.07;;;1.60;;
769;SDS011;368;48.698;9.116;2023-12-28T13:41:54;4.80;;;1.57;;
769;SDS011;368;48.698;9.116;2023-12-28T13:44:21;2.60;;;1.87;;
769;SDS011;368;48.698;9.116;2023-12-28T13:46:48;1.67;;;1.30;;
769;SDS011;368;48.698;9.116;2023-12-28T13:49:16;2.23;;;1.27;;
769;SDS011;368;48.698;9.116;2023-12-28T13:51:43;1.80;;;1.50;;
769;SDS011;368;48.698;9.116;2023-12-28T13:54:11;1.83;;;1.47;;
769;SDS011;368;48.698;9.116;2023-12-28T13:56:38;1.60;;;1.40;;
769;SDS011;368;48.698;9.116;2023-12-28T13:59:06;1.93;;;1.30;;
769;SDS011;368;48.698;9.116;2023-12-28T14:01:34;1.60;;;1.50;;
769;SDS011;368;48.698;9.116;2023-12-28T14:04:01;2.47;;;1.63;;
769;SDS011;368;48.698;9.116;2023-12-28T14:06:29;4.50;;;1.70;;
769;SDS011;368;48.698;9.116;2023-12-28T14:08:56;3.53;;;1.33;;
769;SDS011;368;48.698;9.116;2023-12-28T14:11:23;1.83;;;1.67;;
769;SDS011;368;48.698;9.116;2023-12-28T14:13:50;2.10;;;1.53;;
769;SDS011;368;48.698;9.116;2023-12-28T14:16:17;2.70;;;1.93;;
769;SDS011;368;48.698;9.116;2023-12-28T14:18:43;1.90;;;1.70;;
769;SDS011;368;48.698;9.116;2023-12-28T14:21:12;1.70;;;1.27;;
769;SDS011;368;48.698;9.116;2023-12-28T14:23:41;2.30;;;1.60;;
769;SDS011;368;48.698;9.116;2023-12-28T14:26:11;1.90;;;1.30;;
769;SDS011;368;48.698;9.116;2023-12-28T14:28:39;4.10;;;2.70;;
769;SDS011;368;48.698;9.116;2023-12-28T14:31:07;2.17;;;1.73;;
769;SDS011;368;48.698;9.116;2023-12-28T14:33:35;3.60;;;1.53;;
769;SDS011;368;48.698;9.116;2023-12-28T14:36:04;2.90;;;1.63;;
769;SDS011;368;48.698;9.116;2023-12-28T14:38:35;1.43;;;1.33;;
769;SDS011;368;48.698;9.116;2023-12-28T14:41:03;3.10;;;2.13;;
769;SDS011;368;48.698;9.116;2023-12-28T14:43:30;2.70;;;2.03;;
769;SDS011;368;48.698;9.116;2023-12-28T14:45:57;3.37;;;2.57;;
769;SDS011;368;48.698;9.116;2023-12-28T14:48:24;3.07;;;1.90;;
769;SDS011;368;48.698;9.116;2023-12-28T14:50:51;2.10;;;1.80;;
769;SDS011;368;48.698;9.116;2023-12-28T14:53:18;2.20;;;1.70;;
769;SDS011;368;48.698;9.116;2023-12-28T14:55:45;2.60;;;1.70;;
769;SDS011;368;48.698;9.116;2023-12-28T14:58:13;1.93;;;1.70;;
769;SDS011;368;48.698;9.116;2023-12-28T15:00:43;6.20;;;2.90;;
769;SDS011;368;48.698;9.116;2023-12-28T15:03:09;3.00;;;2.00;;
769;SDS011;368;48.698;9.116;2023-12-28T15:05:37;3.13;;;2.27;;
769;SDS011;368;48.698;9.116;2023-12-28T15:08:04;3.03;;;1.80;;
769;SDS011;368;48.698;9.116;2023-12-28T15:10:31;2.10;;;2.00;;
769;SDS011;368;48.698;9.116;2023-12-28T15:12:59;3.80;;;1.90;;
769;SDS011;368;48.698;9.116;2023-12-28T15:15:29;5.07;;;4.23;;
769;SDS011;368;48.698;9.116;2023-12-28T15:17:57;4.13;;;3.77;;
769;SDS011;368;48.698;9.116;2023-12-28T15:20:24;6.27;;;5.17;;
769;SDS011;368;48.698;9.116;2023-12-28T15:22:52;3.10;;;2.90;;
769;SDS011;368;48.698;9.116;2023-12-28T15:25:19;3.00;;;2.70;;
769;SDS011;368;48.698;9.116;2023-12-28T15:27:46;4.00;;;2.70;;
769;SDS011;368;48.698;9.116;2023-12-28T15:30:13;5.27;;;3.87;;
769;SDS011;368;48.698;9.116;2023-12-28T15:32:42;12.20;;;5.30;;
769;SDS011;368;48.698;9.116;2023-12-28T15:35:12;5.77;;;3.87;;
769;SDS011;368;48.698;9.116;2023-12-28T15:37:39;4.17;;;3.53;;
769;SDS011;368;48.698;9.116;2023-12-28T15:40:07;3.90;;;3.00;;
769;SDS011;368;48.698;9.116;2023-12-28T15:42:34;5.03;;;2.87;;
769;SDS011;368;48.698;9.116;2023-12-28T15:45:01;3.70;;;3.40;;
769;SDS011;368;48.698;9.116;2023-12-28T15:47:28;3.63;;;3.20;;